sensor_id;sensor_type;location;lat;lon;timestamp;pressure;altitude;pressure_sealevel;temperature;humidity
9969;BME280;5025;48.890;9.278;2023-05-02T00:00:33;98868.13;;;11.41;82.20
9969;BME280;5025;48.890;9.278;2023-05-02T00:02:59;98873.75;;;11.39;81.88
9969;BME280;5025;48.890;9.278;2023-05-02T00:05:25;98876.09;;;11.36;82.07
9969;BME280;5025;48.890;9.278;2023-05-02T00:07:50;98869.84;;;11.35;82.19
9969;BME280;5025;48.890;9.278;2023-05-02T00:10:18;98871.16;;;11.33;81.89
9969;BME280;5025;48.890;9.278;2023-05-02T00:12:43;98873.63;;;11.34;82.03
9969;BME280;5025;48.890;9.278;2023-05-02T00:15:09;98869.50;;;11.32;82.05
9969;BME280;5025;48.890;9.278;2023-05-02T00:17:35;98873.50;;;11.29;81.89
9969;BME280;5025;48.890;9.278;2023-05-02T00:20:00;98863.97;;;11.26;82.09
9969;BME280;5025;48.890;9.278;2023-05-02T00:22:28;98866.06;;;11.24;82.01
9969;BME280;5025;48.890;9.278;2023-05-02T00:24:57;98867.72;;;11.25;82.01
9969;BME280;5025;48.890;9.278;2023-05-02T00:27:22;98861.97;;;11.22;82.19
9969;BME280;5025;48.890;9.278;2023-05-02T00:29:48;98862.19;;;11.20;82.17
9969;BME280;5025;48.890;9.278;2023-05-02T00:32:13;98875.09;;;11.18;82.32
9969;BME280;5025;48.890;9.278;2023-05-02T00:34:39;98871.00;;;11.16;82.34
9969;BME280;5025;48.890;9.278;2023-05-02T00:37:04;98867.69;;;11.13;82.42
9969;BME280;5025;48.890;9.278;2023-05-02T00:39:29;98874.16;;;11.12;82.19
9969;BME280;5025;48.890;9.278;2023-05-02T00:41:56;98875.22;;;11.11;82.51
9969;BME280;5025;48.890;9.278;2023-05-02T00:44:21;98866.75;;;11.08;82.32
9969;BME280;5025;48.890;9.278;2023-05-02T00:46:47;98868.03;;;11.05;82.41
9969;BME280;5025;48.890;9.278;2023-05-02T00:49:12;98876.59;;;11.02;82.55
9969;BME280;5025;48.890;9.278;2023-05-02T00:51:38;98873.75;;;10.97;82.63
9969;BME280;5025;48.890;9.278;2023-05-02T00:54:04;98877.50;;;10.96;82.54
9969;BME280;5025;48.890;9.278;2023-05-02T00:56:30;98871.28;;;10.96;82.81
9969;BME280;5025;48.890;9.278;2023-05-02T00:58:55;98876.31;;;10.92;82.69
9969;BME280;5025;48.890;9.278;2023-05-02T01:01:32;98872.78;;;10.91;82.92
9969;BME280;5025;48.890;9.278;2023-05-02T01:12:39;98878.28;;;10.85;82.78
9969;BME280;5025;48.890;9.278;2023-05-02T01:15:08;98878.50;;;10.83;82.42
9969;BME280;5025;48.890;9.278;2023-05-02T01:17:35;98877.66;;;10.83;82.69
9969;BME280;5025;48.890;9.278;2023-05-02T01:20:08;98893.06;;;10.82;82.78
9969;BME280;5025;48.890;9.278;2023-05-02T01:22:37;98896.00;;;10.81;82.82
9969;BME280;5025;48.890;9.278;2023-05-02T01:30:31;98887.59;;;10.70;82.83
9969;BME280;5025;48.890;9.278;2023-05-02T01:32:58;98888.88;;;10.68;82.89
9969;BME280;5025;48.890;9.278;2023-05-02T01:35:26;98888.72;;;10.63;82.98
9969;BME280;5025;48.890;9.278;2023-05-02T01:37:51;98895.41;;;10.60;83.18
9969;BME280;5025;48.890;9.278;2023-05-02T01:40:19;98896.69;;;10.57;83.21
9969;BME280;5025;48.890;9.278;2023-05-02T01:42:49;98892.31;;;10.56;83.38
9969;BME280;5025;48.890;9.278;2023-05-02T01:45:15;98890.69;;;10.55;83.40
9969;BME280;5025;48.890;9.278;2023-05-02T01:47:42;98897.94;;;10.55;83.52
9969;BME280;5025;48.890;9.278;2023-05-02T01:50:10;98894.81;;;10.58;83.57
9969;BME280;5025;48.890;9.278;2023-05-02T01:52:38;98897.50;;;10.58;83.54
9969;BME280;5025;48.890;9.278;2023-05-02T01:55:06;98899.38;;;10.57;83.76
9969;BME280;5025;48.890;9.278;2023-05-02T01:57:35;98898.34;;;10.58;83.91
9969;BME280;5025;48.890;9.278;2023-05-02T02:00:03;98903.75;;;10.58;83.73
9969;BME280;5025;48.890;9.278;2023-05-02T02:02:30;98900.81;;;10.60;83.83
9969;BME280;5025;48.890;9.278;2023-05-02T02:04:59;98903.31;;;10.62;84.00
9969;BME280;5025;48.890;9.278;2023-05-02T02:07:26;98901.63;;;10.61;83.74
9969;BME280;5025;48.890;9.278;2023-05-02T02:09:51;98903.53;;;10.60;83.95
9969;BME280;5025;48.890;9.278;2023-05-02T02:12:30;98903.75;;;10.58;83.84
9969;BME280;5025;48.890;9.278;2023-05-02T02:15:02;98907.50;;;10.57;84.04
9969;BME280;5025;48.890;9.278;2023-05-02T02:20:21;98921.16;;;10.44;84.13
9969;BME280;5025;48.890;9.278;2023-05-02T02:22:46;98921.72;;;10.28;84.42
9969;BME280;5025;48.890;9.278;2023-05-02T02:25:14;98926.50;;;10.26;84.53
9969;BME280;5025;48.890;9.278;2023-05-02T02:27:40;98937.53;;;10.24;84.70
9969;BME280;5025;48.890;9.278;2023-05-02T02:30:07;98934.00;;;10.23;84.40
9969;BME280;5025;48.890;9.278;2023-05-02T02:32:33;98938.78;;;10.21;84.40
9969;BME280;5025;48.890;9.278;2023-05-02T02:35:00;98934.44;;;10.20;84.29
9969;BME280;5025;48.890;9.278;2023-05-02T02:37:50;98938.19;;;10.19;83.96
9969;BME280;5025;48.890;9.278;2023-05-02T02:43:25;98948.59;;;10.16;84.11
9969;BME280;5025;48.890;9.278;2023-05-02T02:51:44;98953.63;;;10.12;83.80
9969;BME280;5025;48.890;9.278;2023-05-02T02:54:26;98960.91;;;10.12;83.95
9969;BME280;5025;48.890;9.278;2023-05-02T02:57:34;98968.38;;;10.10;83.95
9969;BME280;5025;48.890;9.278;2023-05-02T03:00:16;98970.91;;;10.04;83.90
9969;BME280;5025;48.890;9.278;2023-05-02T03:02:45;98970.31;;;10.02;84.08
9969;BME280;5025;48.890;9.278;2023-05-02T03:05:12;98971.72;;;10.05;83.88
9969;BME280;5025;48.890;9.278;2023-05-02T03:07:37;98978.19;;;10.04;83.98
9969;BME280;5025;48.890;9.278;2023-05-02T03:10:03;98988.13;;;10.03;83.80
9969;BME280;5025;48.890;9.278;2023-05-02T03:12:29;98984.03;;;10.01;83.93
9969;BME280;5025;48.890;9.278;2023-05-02T03:15:05;98988.34;;;10.02;83.82
9969;BME280;5025;48.890;9.278;2023-05-02T03:17:33;98990.69;;;9.98;83.83
9969;BME280;5025;48.890;9.278;2023-05-02T03:19:58;98993.16;;;10.00;83.82
9969;BME280;5025;48.890;9.278;2023-05-02T03:22:23;99001.03;;;10.01;83.81
9969;BME280;5025;48.890;9.278;2023-05-02T03:24:48;98999.16;;;10.02;83.61
9969;BME280;5025;48.890;9.278;2023-05-02T03:27:14;99007.25;;;10.02;83.64
9969;BME280;5025;48.890;9.278;2023-05-02T03:29:39;99006.88;;;9.98;83.74
9969;BME280;5025;48.890;9.278;2023-05-02T03:32:04;99006.66;;;10.00;83.80
9969;BME280;5025;48.890;9.278;2023-05-02T03:34:29;99007.69;;;9.99;84.02
9969;BME280;5025;48.890;9.278;2023-05-02T03:36:55;99008.53;;;9.99;83.96
9969;BME280;5025;48.890;9.278;2023-05-02T03:39:20;99012.25;;;9.98;83.89
9969;BME280;5025;48.890;9.278;2023-05-02T03:41:45;99013.50;;;9.96;84.12
9969;BME280;5025;48.890;9.278;2023-05-02T03:44:11;99013.50;;;9.96;83.99
9969;BME280;5025;48.890;9.278;2023-05-02T03:46:36;99022.22;;;9.98;83.98
9969;BME280;5025;48.890;9.278;2023-05-02T03:49:02;99025.16;;;9.96;84.01
9969;BME280;5025;48.890;9.278;2023-05-02T03:51:27;99025.16;;;9.96;84.00
9969;BME280;5025;48.890;9.278;2023-05-02T03:53:52;99025.97;;;9.97;83.90
9969;BME280;5025;48.890;9.278;2023-05-02T03:56:18;99033.69;;;9.93;83.94
9969;BME280;5025;48.890;9.278;2023-05-02T03:58:44;99035.16;;;9.89;83.95
9969;BME280;5025;48.890;9.278;2023-05-02T04:01:16;99038.06;;;9.87;84.14
9969;BME280;5025;48.890;9.278;2023-05-02T04:03:42;99040.16;;;9.85;84.04
9969;BME280;5025;48.890;9.278;2023-05-02T04:06:07;99034.16;;;9.83;84.22
9969;BME280;5025;48.890;9.278;2023-05-02T04:08:33;99045.38;;;9.80;84.34
9969;BME280;5025;48.890;9.278;2023-05-02T04:10:58;99044.78;;;9.78;84.68
9969;BME280;5025;48.890;9.278;2023-05-02T04:13:23;99042.44;;;9.82;84.61
9969;BME280;5025;48.890;9.278;2023-05-02T04:15:49;99044.72;;;9.85;84.52
9969;BME280;5025;48.890;9.278;2023-05-02T04:18:14;99042.44;;;9.89;84.35
9969;BME280;5025;48.890;9.278;2023-05-02T04:20:42;99048.63;;;9.89;84.39
9969;BME280;5025;48.890;9.278;2023-05-02T04:23:08;99044.06;;;9.90;84.51
9969;BME280;5025;48.890;9.278;2023-05-02T04:25:34;99042.44;;;9.89;84.49
9969;BME280;5025;48.890;9.278;2023-05-02T04:27:59;99052.16;;;9.90;84.98
9969;BME280;5025;48.890;9.278;2023-05-02T04:30:25;99050.31;;;9.90;85.03
9969;BME280;5025;48.890;9.278;2023-05-02T04:32:50;99057.13;;;9.93;84.97
9969;BME280;5025;48.890;9.278;2023-05-02T04:35:16;99062.50;;;9.93;84.94
9969;BME280;5025;48.890;9.278;2023-05-02T04:37:41;99065.00;;;9.94;85.04
9969;BME280;5025;48.890;9.278;2023-05-02T04:40:07;99060.81;;;9.98;84.77
9969;BME280;5025;48.890;9.278;2023-05-02T04:42:33;99060.59;;;10.00;85.02
9969;BME280;5025;48.890;9.278;2023-05-02T04:44:58;99058.72;;;10.00;84.97
9969;BME280;5025;48.890;9.278;2023-05-02T04:47:23;99060.38;;;10.01;84.97
9969;BME280;5025;48.890;9.278;2023-05-02T04:49:48;99065.56;;;10.03;84.93
9969;BME280;5025;48.890;9.278;2023-05-02T04:52:14;99064.53;;;10.04;85.11
9969;BME280;5025;48.890;9.278;2023-05-02T04:54:39;99066.38;;;10.03;85.47
9969;BME280;5025;48.890;9.278;2023-05-02T04:57:04;99067.22;;;10.04;85.33
9969;BME280;5025;48.890;9.278;2023-05-02T04:59:32;99068.03;;;10.04;85.23
9969;BME280;5025;48.890;9.278;2023-05-02T05:01:57;99069.50;;;10.07;85.26
9969;BME280;5025;48.890;9.278;2023-05-02T05:04:23;99074.88;;;10.07;85.35
9969;BME280;5025;48.890;9.278;2023-05-02T05:06:49;99078.41;;;10.08;85.35
9969;BME280;5025;48.890;9.278;2023-05-02T05:09:14;99083.56;;;10.09;85.38
9969;BME280;5025;48.890;9.278;2023-05-02T05:11:40;99079.00;;;10.10;85.72
9969;BME280;5025;48.890;9.278;2023-05-02T05:14:07;99090.00;;;10.15;85.60
9969;BME280;5025;48.890;9.278;2023-05-02T05:16:32;99098.47;;;10.18;85.44
9969;BME280;5025;48.890;9.278;2023-05-02T05:18:58;99105.91;;;10.23;85.60
9969;BME280;5025;48.890;9.278;2023-05-02T05:21:24;99118.38;;;10.24;85.28
9969;BME280;5025;48.890;9.278;2023-05-02T05:23:49;99123.31;;;10.27;85.53
9969;BME280;5025;48.890;9.278;2023-05-02T05:26:15;99122.03;;;10.30;85.65
9969;BME280;5025;48.890;9.278;2023-05-02T05:28:41;99124.34;;;10.33;85.75
9969;BME280;5025;48.890;9.278;2023-05-02T05:31:07;99121.19;;;10.36;85.67
9969;BME280;5025;48.890;9.278;2023-05-02T05:33:34;99128.25;;;10.37;85.75
9969;BME280;5025;48.890;9.278;2023-05-02T05:36:07;99135.72;;;10.42;85.96
9969;BME280;5025;48.890;9.278;2023-05-02T05:38:32;99131.13;;;10.42;85.81
9969;BME280;5025;48.890;9.278;2023-05-02T05:40:58;99139.84;;;10.44;85.85
9969;BME280;5025;48.890;9.278;2023-05-02T05:43:23;99143.16;;;10.46;85.92
9969;BME280;5025;48.890;9.278;2023-05-02T05:45:54;99142.50;;;10.51;86.13
9969;BME280;5025;48.890;9.278;2023-05-02T05:48:19;99145.19;;;10.51;86.10
9969;BME280;5025;48.890;9.278;2023-05-02T05:50:45;99160.38;;;10.45;86.20
9969;BME280;5025;48.890;9.278;2023-05-02T05:53:11;99158.91;;;10.49;86.82
9969;BME280;5025;48.890;9.278;2023-05-02T05:55:36;99160.56;;;10.50;86.58
9969;BME280;5025;48.890;9.278;2023-05-02T05:58:02;99160.56;;;10.50;86.88
9969;BME280;5025;48.890;9.278;2023-05-02T06:00:28;99155.94;;;10.57;86.95
9969;BME280;5025;48.890;9.278;2023-05-02T06:02:53;99166.91;;;10.63;86.75
9969;BME280;5025;48.890;9.278;2023-05-02T06:05:19;99157.75;;;10.64;86.69
9969;BME280;5025;48.890;9.278;2023-05-02T06:07:44;99170.59;;;10.68;86.65
9969;BME280;5025;48.890;9.278;2023-05-02T06:10:10;99175.34;;;10.73;86.52
9969;BME280;5025;48.890;9.278;2023-05-02T06:12:35;99169.06;;;10.79;86.51
9969;BME280;5025;48.890;9.278;2023-05-02T06:15:01;99172.75;;;10.85;86.51
9969;BME280;5025;48.890;9.278;2023-05-02T06:17:26;99175.03;;;10.88;86.33
9969;BME280;5025;48.890;9.278;2023-05-02T06:19:51;99170.72;;;10.80;86.72
9969;BME280;5025;48.890;9.278;2023-05-02T06:22:17;99187.31;;;10.84;86.90
9969;BME280;5025;48.890;9.278;2023-05-02T06:24:42;99184.81;;;10.82;87.06
9969;BME280;5025;48.890;9.278;2023-05-02T06:27:07;99192.78;;;10.77;87.41
9969;BME280;5025;48.890;9.278;2023-05-02T06:29:33;99191.28;;;10.81;87.06
9969;BME280;5025;48.890;9.278;2023-05-02T06:31:58;99190.59;;;10.86;87.34
9969;BME280;5025;48.890;9.278;2023-05-02T06:34:23;99187.31;;;10.84;87.37
9969;BME280;5025;48.890;9.278;2023-05-02T06:36:53;99193.72;;;10.89;87.62
9969;BME280;5025;48.890;9.278;2023-05-02T06:39:19;99197.16;;;10.97;87.38
9969;BME280;5025;48.890;9.278;2023-05-02T06:41:45;99193.38;;;11.04;87.24
9969;BME280;5025;48.890;9.278;2023-05-02T06:44:10;99200.38;;;11.12;87.13
9969;BME280;5025;48.890;9.278;2023-05-02T06:46:35;99212.78;;;11.20;86.85
9969;BME280;5025;48.890;9.278;2023-05-02T06:49:00;99217.50;;;11.24;86.59
9969;BME280;5025;48.890;9.278;2023-05-02T06:51:26;99211.44;;;11.29;86.86
9969;BME280;5025;48.890;9.278;2023-05-02T06:53:51;99213.47;;;11.34;86.57
9969;BME280;5025;48.890;9.278;2023-05-02T06:56:19;99211.38;;;11.36;86.57
9969;BME280;5025;48.890;9.278;2023-05-02T06:58:44;99214.25;;;11.41;86.54
9969;BME280;5025;48.890;9.278;2023-05-02T07:01:09;99214.25;;;11.41;86.35
9969;BME280;5025;48.890;9.278;2023-05-02T07:03:36;99217.09;;;11.46;86.54
9969;BME280;5025;48.890;9.278;2023-05-02T07:06:01;99221.69;;;11.45;86.77
9969;BME280;5025;48.890;9.278;2023-05-02T07:08:27;99221.59;;;11.52;86.70
9969;BME280;5025;48.890;9.278;2023-05-02T07:10:52;99232.16;;;11.60;86.44
9969;BME280;5025;48.890;9.278;2023-05-02T07:13:17;99240.84;;;11.62;86.21
9969;BME280;5025;48.890;9.278;2023-05-02T07:15:43;99234.47;;;11.57;86.71
9969;BME280;5025;48.890;9.278;2023-05-02T07:18:08;99242.53;;;11.63;86.55
9969;BME280;5025;48.890;9.278;2023-05-02T07:20:33;99243.25;;;11.52;86.26
9969;BME280;5025;48.890;9.278;2023-05-02T07:22:58;99245.16;;;11.26;85.51
9969;BME280;5025;48.890;9.278;2023-05-02T07:25:24;99251.03;;;11.23;86.04
9969;BME280;5025;48.890;9.278;2023-05-02T07:27:49;99243.88;;;11.29;86.18
9969;BME280;5025;48.890;9.278;2023-05-02T07:30:14;99250.88;;;11.37;85.94
9969;BME280;5025;48.890;9.278;2023-05-02T07:32:39;99249.78;;;11.19;85.81
9969;BME280;5025;48.890;9.278;2023-05-02T07:35:05;99246.94;;;11.14;85.67
9969;BME280;5025;48.890;9.278;2023-05-02T07:37:32;99252.34;;;11.14;85.29
9969;BME280;5025;48.890;9.278;2023-05-02T07:40:00;99244.84;;;11.16;84.84
9969;BME280;5025;48.890;9.278;2023-05-02T07:42:31;99256.88;;;11.20;84.38
9969;BME280;5025;48.890;9.278;2023-05-02T07:44:57;99262.97;;;11.09;84.58
9969;BME280;5025;48.890;9.278;2023-05-02T07:47:22;99258.88;;;11.00;85.24
9969;BME280;5025;48.890;9.278;2023-05-02T07:49:52;99260.09;;;11.04;84.90
9969;BME280;5025;48.890;9.278;2023-05-02T07:52:18;99259.94;;;10.99;84.65
9969;BME280;5025;48.890;9.278;2023-05-02T07:54:44;99265.34;;;10.99;85.43
9969;BME280;5025;48.890;9.278;2023-05-02T07:57:11;99271.53;;;11.06;85.27
9969;BME280;5025;48.890;9.278;2023-05-02T07:59:36;99275.38;;;11.17;85.02
9969;BME280;5025;48.890;9.278;2023-05-02T08:02:01;99277.91;;;11.37;84.47
9969;BME280;5025;48.890;9.278;2023-05-02T08:04:27;99272.47;;;11.43;84.24
9969;BME280;5025;48.890;9.278;2023-05-02T08:06:53;99275.69;;;11.52;83.88
9969;BME280;5025;48.890;9.278;2023-05-02T08:09:18;99271.06;;;11.59;83.42
9969;BME280;5025;48.890;9.278;2023-05-02T08:11:44;99284.03;;;11.76;83.10
9969;BME280;5025;48.890;9.278;2023-05-02T08:14:09;99281.75;;;11.73;82.78
9969;BME280;5025;48.890;9.278;2023-05-02T08:16:34;99283.84;;;11.71;82.21
9969;BME280;5025;48.890;9.278;2023-05-02T08:19:00;99291.03;;;11.58;82.16
9969;BME280;5025;48.890;9.278;2023-05-02T08:21:25;99286.25;;;11.60;82.08
9969;BME280;5025;48.890;9.278;2023-05-02T08:23:56;99287.16;;;11.73;81.87
9969;BME280;5025;48.890;9.278;2023-05-02T08:26:22;99293.94;;;11.82;81.79
9969;BME280;5025;48.890;9.278;2023-05-02T08:28:49;99291.47;;;11.80;81.30
9969;BME280;5025;48.890;9.278;2023-05-02T08:31:15;99291.81;;;11.65;81.64
9969;BME280;5025;48.890;9.278;2023-05-02T08:33:40;99296.34;;;11.72;81.93
9969;BME280;5025;48.890;9.278;2023-05-02T08:36:15;99290.56;;;11.68;82.10
9969;BME280;5025;48.890;9.278;2023-05-02T08:38:42;99291.91;;;11.77;81.79
9969;BME280;5025;48.890;9.278;2023-05-02T08:41:15;99299.88;;;11.91;81.29
9969;BME280;5025;48.890;9.278;2023-05-02T08:43:42;99304.34;;;12.04;81.04
9969;BME280;5025;48.890;9.278;2023-05-02T08:46:09;99300.91;;;12.15;80.48
9969;BME280;5025;48.890;9.278;2023-05-02T08:48:35;99304.09;;;12.24;80.21
9969;BME280;5025;48.890;9.278;2023-05-02T08:51:02;99299.34;;;12.37;79.80
9969;BME280;5025;48.890;9.278;2023-05-02T08:53:32;99295.03;;;12.48;79.53
9969;BME280;5025;48.890;9.278;2023-05-02T08:55:58;99310.47;;;12.48;79.96
9969;BME280;5025;48.890;9.278;2023-05-02T08:58:24;99302.50;;;12.34;79.36
9969;BME280;5025;48.890;9.278;2023-05-02T09:00:50;99305.91;;;12.30;79.22
9969;BME280;5025;48.890;9.278;2023-05-02T09:03:35;99301.09;;;12.50;78.83
9969;BME280;5025;48.890;9.278;2023-05-02T09:06:07;99311.22;;;12.55;78.40
9969;BME280;5025;48.890;9.278;2023-05-02T09:08:33;99307.72;;;12.66;78.03
9969;BME280;5025;48.890;9.278;2023-05-02T09:11:00;99315.53;;;12.74;77.86
9969;BME280;5025;48.890;9.278;2023-05-02T09:26:17;99320.53;;;12.89;75.89
9969;BME280;5025;48.890;9.278;2023-05-02T09:31:19;99315.28;;;13.06;75.14
9969;BME280;5025;48.890;9.278;2023-05-02T09:33:45;99318.97;;;13.24;74.99
9969;BME280;5025;48.890;9.278;2023-05-02T09:36:13;99314.28;;;13.31;74.59
9969;BME280;5025;48.890;9.278;2023-05-02T09:38:39;99308.19;;;13.36;73.70
9969;BME280;5025;48.890;9.278;2023-05-02T09:41:04;99315.84;;;13.51;73.67
9969;BME280;5025;48.890;9.278;2023-05-02T09:43:30;99311.41;;;13.68;73.16
9969;BME280;5025;48.890;9.278;2023-05-02T09:46:00;99308.56;;;13.75;72.87
9969;BME280;5025;48.890;9.278;2023-05-02T09:48:27;99307.25;;;13.77;71.87
9969;BME280;5025;48.890;9.278;2023-05-02T09:50:53;99311.03;;;13.76;71.73
9969;BME280;5025;48.890;9.278;2023-05-02T09:53:18;99299.09;;;13.89;71.61
9969;BME280;5025;48.890;9.278;2023-05-02T09:55:44;99300.28;;;14.05;71.24
9969;BME280;5025;48.890;9.278;2023-05-02T09:58:20;99304.19;;;13.97;70.29
9969;BME280;5025;48.890;9.278;2023-05-02T10:00:46;99307.72;;;13.98;70.41
9969;BME280;5025;48.890;9.278;2023-05-02T10:03:15;99295.28;;;14.14;70.33
9969;BME280;5025;48.890;9.278;2023-05-02T10:05:42;99302.69;;;14.30;69.94
9969;BME280;5025;48.890;9.278;2023-05-02T10:08:08;99307.63;;;14.45;69.54
9969;BME280;5025;48.890;9.278;2023-05-02T10:10:39;99302.03;;;14.52;69.94
9969;BME280;5025;48.890;9.278;2023-05-02T10:13:07;99304.34;;;14.72;69.49
9969;BME280;5025;48.890;9.278;2023-05-02T10:15:33;99301.31;;;14.85;69.00
9969;BME280;5025;48.890;9.278;2023-05-02T10:18:07;99310.63;;;14.90;68.58
9969;BME280;5025;48.890;9.278;2023-05-02T10:20:42;99307.09;;;14.89;67.30
9969;BME280;5025;48.890;9.278;2023-05-02T10:23:08;99314.03;;;14.97;66.82
9969;BME280;5025;48.890;9.278;2023-05-02T10:25:34;99310.91;;;15.05;66.67
9969;BME280;5025;48.890;9.278;2023-05-02T10:27:59;99304.19;;;15.24;66.14
9969;BME280;5025;48.890;9.278;2023-05-02T10:30:25;99302.94;;;15.49;65.60
9969;BME280;5025;48.890;9.278;2023-05-02T10:32:51;99304.66;;;15.72;65.16
9969;BME280;5025;48.890;9.278;2023-05-02T10:35:20;99305.22;;;15.91;64.70
9969;BME280;5025;48.890;9.278;2023-05-02T10:37:46;99296.16;;;16.08;64.24
9969;BME280;5025;48.890;9.278;2023-05-02T10:40:13;99300.03;;;16.12;63.97
9969;BME280;5025;48.890;9.278;2023-05-02T10:42:41;99293.44;;;16.08;61.77
9969;BME280;5025;48.890;9.278;2023-05-02T10:45:36;99286.66;;;15.88;58.80
9969;BME280;5025;48.890;9.278;2023-05-02T10:48:12;99293.19;;;16.09;59.47
9969;BME280;5025;48.890;9.278;2023-05-02T10:50:42;99288.78;;;16.25;58.45
9969;BME280;5025;48.890;9.278;2023-05-02T10:53:28;99288.13;;;16.18;56.91
9969;BME280;5025;48.890;9.278;2023-05-02T10:58:38;99281.84;;;16.40;55.72
9969;BME280;5025;48.890;9.278;2023-05-02T11:01:32;99273.47;;;16.46;55.18
9969;BME280;5025;48.890;9.278;2023-05-02T11:04:07;99274.41;;;16.57;55.25
9969;BME280;5025;48.890;9.278;2023-05-02T11:06:35;99272.06;;;16.66;55.26
9969;BME280;5025;48.890;9.278;2023-05-02T11:11:43;99276.53;;;16.50;54.60
9969;BME280;5025;48.890;9.278;2023-05-02T11:14:10;99276.41;;;16.40;54.09
9969;BME280;5025;48.890;9.278;2023-05-02T11:24:49;99287.19;;;16.07;56.21
9969;BME280;5025;48.890;9.278;2023-05-02T11:30:06;99290.34;;;15.77;57.38
9969;BME280;5025;48.890;9.278;2023-05-02T11:35:30;99277.13;;;15.52;56.14
9969;BME280;5025;48.890;9.278;2023-05-02T11:40:27;99284.19;;;15.70;55.69
9969;BME280;5025;48.890;9.278;2023-05-02T11:42:53;99279.00;;;15.85;55.21
9969;BME280;5025;48.890;9.278;2023-05-02T11:45:19;99272.28;;;15.93;54.92
9969;BME280;5025;48.890;9.278;2023-05-02T11:47:49;99264.19;;;15.98;54.32
9969;BME280;5025;48.890;9.278;2023-05-02T11:50:15;99269.44;;;16.05;53.61
9969;BME280;5025;48.890;9.278;2023-05-02T11:52:43;99272.53;;;16.36;53.44
9969;BME280;5025;48.890;9.278;2023-05-02T11:55:10;99265.84;;;16.71;53.38
9969;BME280;5025;48.890;9.278;2023-05-02T11:57:37;99256.91;;;17.02;52.84
9969;BME280;5025;48.890;9.278;2023-05-02T12:00:03;99264.06;;;17.09;52.67
9969;BME280;5025;48.890;9.278;2023-05-02T12:05:02;99271.72;;;17.12;52.45
9969;BME280;5025;48.890;9.278;2023-05-02T12:07:44;99277.06;;;17.01;53.35
9969;BME280;5025;48.890;9.278;2023-05-02T12:10:11;99278.50;;;16.82;53.54
9969;BME280;5025;48.890;9.278;2023-05-02T12:12:37;99280.25;;;16.66;53.74
9969;BME280;5025;48.890;9.278;2023-05-02T12:15:10;99287.09;;;16.69;53.99
9969;BME280;5025;48.890;9.278;2023-05-02T12:17:37;99291.81;;;16.78;53.76
9969;BME280;5025;48.890;9.278;2023-05-02T12:20:04;99288.84;;;16.80;53.73
9969;BME280;5025;48.890;9.278;2023-05-02T12:22:30;99291.88;;;16.83;54.33
9969;BME280;5025;48.890;9.278;2023-05-02T12:24:56;99292.38;;;16.80;55.13
9969;BME280;5025;48.890;9.278;2023-05-02T12:27:21;99297.03;;;16.80;55.53
9969;BME280;5025;48.890;9.278;2023-05-02T12:29:47;99299.19;;;16.78;56.05
9969;BME280;5025;48.890;9.278;2023-05-02T12:32:14;99293.16;;;16.76;57.06
9969;BME280;5025;48.890;9.278;2023-05-02T12:34:40;99300.47;;;16.70;57.81
9969;BME280;5025;48.890;9.278;2023-05-02T12:37:07;99297.66;;;16.65;58.60
9969;BME280;5025;48.890;9.278;2023-05-02T12:39:42;99293.00;;;16.60;59.78
9969;BME280;5025;48.890;9.278;2023-05-02T12:42:12;99301.69;;;16.57;60.58
9969;BME280;5025;48.890;9.278;2023-05-02T12:44:38;99301.63;;;16.52;61.20
9969;BME280;5025;48.890;9.278;2023-05-02T12:47:04;99300.47;;;16.48;61.72
9969;BME280;5025;48.890;9.278;2023-05-02T12:49:30;99298.00;;;16.46;62.26
9969;BME280;5025;48.890;9.278;2023-05-02T12:51:56;99307.53;;;16.44;62.90
9969;BME280;5025;48.890;9.278;2023-05-02T12:54:21;99307.47;;;16.39;63.44
9969;BME280;5025;48.890;9.278;2023-05-02T12:56:46;99317.81;;;16.37;64.06
9969;BME280;5025;48.890;9.278;2023-05-02T12:59:29;99304.69;;;16.34;64.61
9969;BME280;5025;48.890;9.278;2023-05-02T13:01:54;99308.97;;;16.29;64.76
9969;BME280;5025;48.890;9.278;2023-05-02T13:04:20;99308.16;;;16.29;65.02
9969;BME280;5025;48.890;9.278;2023-05-02T13:06:45;99300.81;;;16.29;65.31
9969;BME280;5025;48.890;9.278;2023-05-02T13:09:10;99303.53;;;16.29;65.73
9969;BME280;5025;48.890;9.278;2023-05-02T13:11:35;99300.28;;;16.33;65.87
9969;BME280;5025;48.890;9.278;2023-05-02T13:14:03;99307.97;;;16.36;66.07
9969;BME280;5025;48.890;9.278;2023-05-02T13:16:29;99301.19;;;16.38;66.21
9969;BME280;5025;48.890;9.278;2023-05-02T13:18:55;99295.53;;;16.45;66.17
9969;BME280;5025;48.890;9.278;2023-05-02T13:21:20;99298.34;;;16.50;66.32
9969;BME280;5025;48.890;9.278;2023-05-02T13:23:46;99295.16;;;16.58;66.32
9969;BME280;5025;48.890;9.278;2023-05-02T13:26:11;99300.41;;;16.65;66.06
9969;BME280;5025;48.890;9.278;2023-05-02T13:28:37;99290.44;;;16.76;66.29
9969;BME280;5025;48.890;9.278;2023-05-02T13:31:02;99289.25;;;16.89;65.93
9969;BME280;5025;48.890;9.278;2023-05-02T13:33:28;99289.97;;;17.11;65.77
9969;BME280;5025;48.890;9.278;2023-05-02T13:35:53;99288.28;;;17.37;65.35
9969;BME280;5025;48.890;9.278;2023-05-02T13:38:18;99288.78;;;17.67;64.94
9969;BME280;5025;48.890;9.278;2023-05-02T13:40:43;99283.13;;;17.79;64.33
9969;BME280;5025;48.890;9.278;2023-05-02T13:43:08;99281.47;;;17.83;63.98
9969;BME280;5025;48.890;9.278;2023-05-02T13:45:34;99282.31;;;17.83;63.78
9969;BME280;5025;48.890;9.278;2023-05-02T13:47:59;99287.84;;;17.94;63.39
9969;BME280;5025;48.890;9.278;2023-05-02T13:50:25;99284.13;;;18.10;62.73
9969;BME280;5025;48.890;9.278;2023-05-02T13:52:50;99286.13;;;18.35;62.29
9969;BME280;5025;48.890;9.278;2023-05-02T13:55:15;99280.50;;;18.62;61.59
9969;BME280;5025;48.890;9.278;2023-05-02T13:57:41;99280.56;;;18.88;60.96
9969;BME280;5025;48.890;9.278;2023-05-02T14:00:06;99277.59;;;19.10;59.78
9969;BME280;5025;48.890;9.278;2023-05-02T14:02:33;99276.19;;;19.44;58.93
9969;BME280;5025;48.890;9.278;2023-05-02T14:04:59;99276.44;;;19.78;58.29
9969;BME280;5025;48.890;9.278;2023-05-02T14:07:24;99276.06;;;20.11;57.12
9969;BME280;5025;48.890;9.278;2023-05-02T14:09:49;99265.25;;;20.40;56.12
9969;BME280;5025;48.890;9.278;2023-05-02T14:12:15;99271.19;;;20.68;55.10
9969;BME280;5025;48.890;9.278;2023-05-02T14:14:40;99271.53;;;20.95;54.38
9969;BME280;5025;48.890;9.278;2023-05-02T14:17:05;99275.25;;;21.15;50.74
9969;BME280;5025;48.890;9.278;2023-05-02T14:19:31;99264.94;;;21.31;49.26
9969;BME280;5025;48.890;9.278;2023-05-02T14:21:56;99271.88;;;21.23;44.90
9969;BME280;5025;48.890;9.278;2023-05-02T14:24:21;99267.31;;;21.08;44.35
9969;BME280;5025;48.890;9.278;2023-05-02T14:26:47;99268.69;;;21.11;42.56